Time;durP1;ratioP1;P1;durP2;ratioP2;P2;SDS_P1;SDS_P2;PMS_P1;PMS_P2;Temp;Humidity;BMP_temperature;BMP_pressure;BME280_temperature;BME280_humidity;BME280_pressure;Samples;Min_cycle;Max_cycle;Signal;HPM_P1;HPM_P2
2022/12/16 00:03:23;;;;;;;1999.90;999.90;;;;;;;-3.05;78.85;98300.13;10271554;23;20520;-76
2022/12/16 00:07:24;;;;;;;1999.90;999.90;;;;;;;-3.09;78.39;98308.44;10279161;23;20016;-77
2022/12/16 00:11:26;;;;;;;1999.90;999.90;;;;;;;-3.08;78.21;98305.94;10280743;23;20048;-76
2022/12/16 00:15:27;;;;;;;1999.90;999.90;;;;;;;-3.06;78.05;98306.84;10272524;23;20100;-77
2022/12/16 00:19:30;;;;;;;1999.90;999.90;;;;;;;-3.00;77.34;98300.25;10279767;23;20028;-76
2022/12/16 00:23:32;;;;;;;;;;;;;;;-3.01;77.37;98312.09;10304361;23;20472;-76
2022/12/16 00:27:34;;;;;;;1999.90;999.90;;;;;;;-3.09;77.88;98313.50;10282304;23;19916;-76
2022/12/16 00:31:36;;;;;;;1999.90;999.90;;;;;;;-3.21;78.61;98310.59;10273614;23;20768;-75
2022/12/16 00:35:37;;;;;;;1999.90;999.90;;;;;;;-3.33;78.80;98328.81;10269800;22;20115;-78
2022/12/16 00:39:46;;;;;;;1999.90;999.90;;;;;;;-3.45;79.73;98319.13;10280988;23;20021;-76
2022/12/16 00:43:47;;;;;;;1999.90;999.90;;;;;;;-3.50;80.12;98324.84;10305924;23;20116;-76
2022/12/16 00:47:50;;;;;;;1999.90;999.90;;;;;;;-3.65;80.31;98336.19;10275053;23;20040;-76
2022/12/16 00:51:52;;;;;;;1999.90;999.90;;;;;;;-3.70;80.44;98331.78;10279934;23;20016;-76
2022/12/16 00:56:04;;;;;;;1999.90;999.90;;;;;;;-3.82;80.89;98329.69;10280941;23;20016;-75
2022/12/16 01:00:11;;;;;;;1999.90;999.90;;;;;;;-3.89;81.96;98332.84;10273363;23;20044;-76
2022/12/16 01:04:12;;;;;;;1999.90;999.90;;;;;;;-3.88;81.63;98334.56;10279792;23;20044;-75
2022/12/16 01:08:13;;;;;;;1999.90;999.90;;;;;;;-3.97;82.22;98341.81;10282209;23;20024;-74
2022/12/16 01:12:15;;;;;;;1999.90;999.90;;;;;;;-4.04;82.42;98347.50;10281947;23;20092;-76
2022/12/16 01:16:16;;;;;;;1999.90;999.90;;;;;;;-4.11;82.89;98358.22;10275153;23;20075;-75
2022/12/16 01:20:43;;;;;;;1999.90;999.90;;;;;;;-4.11;83.72;98359.09;10295197;23;20031;-74
2022/12/16 01:25:05;;;;;;;1999.90;999.90;;;;;;;-4.10;83.85;98365.88;10283571;23;20067;-78
2022/12/16 01:29:07;;;;;;;1999.90;999.90;;;;;;;-4.09;82.90;98375.22;10284911;23;20028;-75
2022/12/16 01:33:08;;;;;;;1999.90;999.90;;;;;;;-4.11;82.95;98371.78;10284617;22;20035;-75
2022/12/16 01:37:11;;;;;;;1999.90;999.90;;;;;;;-4.22;82.94;98367.09;10314596;23;20017;-74
2022/12/16 01:41:14;;;;;;;1999.90;999.90;;;;;;;-4.21;82.94;98382.34;10288460;23;20027;-76
2022/12/16 01:45:34;;;;;;;1999.90;999.90;;;;;;;-4.21;82.94;98378.97;10288541;23;20028;-76
2022/12/16 01:49:43;;;;;;;1999.90;999.90;;;;;;;-4.18;83.10;98382.47;10292635;23;20032;-78
2022/12/16 01:53:48;;;;;;;1999.90;999.90;;;;;;;-4.12;81.67;98387.78;10288052;23;20041;-76
2022/12/16 01:57:56;;;;;;;1999.90;999.90;;;;;;;-4.05;81.19;98392.25;10285366;23;20067;-76
2022/12/16 02:01:58;;;;;;;1999.90;999.90;;;;;;;-4.00;80.71;98395.81;10278476;23;20074;-75
2022/12/16 02:06:01;;;;;;;;;;;;;;;-3.97;80.22;98406.06;10285665;23;20024;-75
2022/12/16 02:10:03;;;;;;;1999.90;999.90;;;;;;;-3.97;80.04;98400.13;10282978;23;19971;-76
2022/12/16 02:14:30;;;;;;;1999.90;999.90;;;;;;;-3.96;79.68;98396.78;10281108;23;20056;-76
2022/12/16 02:18:57;;;;;;;1999.90;999.90;;;;;;;-3.97;79.40;98395.91;10275821;23;20111;-76
2022/12/16 02:23:04;;;;;;;1999.90;999.90;;;;;;;-4.13;79.28;98388.59;10287480;23;20027;-77
2022/12/16 02:27:51;;;;;;;1999.90;999.90;;;;;;;-4.34;79.59;98378.50;10291458;23;20012;-75
2022/12/16 02:32:03;;;;;;;1999.90;999.90;;;;;;;-4.46;80.94;98385.66;10265795;23;20040;-76
2022/12/16 02:36:21;;;;;;;1999.90;999.90;;;;;;;-4.64;81.38;98395.09;10298618;23;20020;-76
2022/12/16 02:40:29;;;;;;;1999.90;999.90;;;;;;;-4.73;81.54;98400.63;10300602;23;20020;-74
2022/12/16 02:44:42;;;;;;;1999.90;999.90;;;;;;;-4.65;81.11;98406.88;10298247;23;20017;-74
2022/12/16 02:48:44;;;;;;;1999.90;999.90;;;;;;;-4.60;81.14;98407.91;10291794;23;20608;-74
2022/12/16 02:52:47;;;;;;;;;;;;;;;-4.78;80.96;98409.72;10299170;23;20412;-76
2022/12/16 02:57:09;;;;;;;1999.90;999.90;;;;;;;-4.96;81.00;98419.13;10300542;23;19919;-76
2022/12/16 03:01:19;;;;;;;1999.90;999.90;;;;;;;-5.15;82.33;98414.09;10298844;23;20028;-75
2022/12/16 03:05:39;;;;;;;1999.90;999.90;;;;;;;-5.27;82.43;98414.44;10305871;23;20132;-75
2022/12/16 03:09:43;;;;;;;1999.90;999.90;;;;;;;-5.33;83.26;98411.69;10306448;23;20016;-73
2022/12/16 03:13:49;;;;;;;1999.90;999.90;;;;;;;-5.32;83.50;98414.28;10307010;23;20027;-74
2022/12/16 03:17:53;;;;;;;1999.90;999.90;;;;;;;-5.25;83.66;98420.44;10303489;23;20019;-76
2022/12/16 03:22:11;;;;;;;1999.90;999.90;;;;;;;-5.30;83.44;98420.25;10306827;23;20108;-74
2022/12/16 03:26:19;;;;;;;1999.90;999.90;;;;;;;-5.43;83.06;98428.13;10305261;23;20412;-73
2022/12/16 03:30:37;;;;;;;1999.90;999.90;;;;;;;-5.55;82.71;98436.06;10306293;23;20027;-75
2022/12/16 03:34:56;;;;;;;1999.90;999.90;;;;;;;-5.66;83.97;98439.78;10307000;23;20086;-77
2022/12/16 03:38:58;;;;;;;1999.90;999.90;;;;;;;-5.65;83.80;98445.69;10308612;23;20016;-74
2022/12/16 03:43:02;;;;;;;1999.90;999.90;;;;;;;-5.51;83.89;98445.50;10280920;23;20024;-74
2022/12/16 03:47:04;;;;;;;1999.90;999.90;;;;;;;-5.36;83.50;98444.44;10320700;23;20016;-74
2022/12/16 03:51:05;;;;;;;1999.90;999.90;;;;;;;-5.27;82.70;98447.34;10306565;23;20021;-78
2022/12/16 03:55:07;;;;;;;1999.90;999.90;;;;;;;-5.20;81.49;98446.81;10305081;23;20017;-74
2022/12/16 03:59:09;;;;;;;1999.90;999.90;;;;;;;-5.14;81.95;98454.66;10308162;23;20016;-74
2022/12/16 04:03:11;;;;;;;1999.90;999.90;;;;;;;-5.12;80.62;98458.09;10306506;23;20028;-74
2022/12/16 04:07:18;;;;;;;1999.90;999.90;;;;;;;-5.12;80.29;98453.03;10309900;23;20316;-75
2022/12/16 04:24:25;;;;;;;1999.90;999.90;;;;;;;-5.77;80.43;98482.28;10308461;23;20021;-73
2022/12/16 04:28:27;;;;;;;1999.90;999.90;;;;;;;-5.95;80.90;98484.00;10307261;23;20035;-73
2022/12/16 04:34:24;;;;;;;1999.90;999.90;;;;;;;-6.08;81.42;98504.47;10302624;23;20035;-74
